Time;durP1;ratioP1;P1;durP2;ratioP2;P2;SDS_P1;SDS_P2;PMS_P1;PMS_P2;Temp;Humidity;BMP_temperature;BMP_pressure;BME280_temperature;BME280_humidity;BME280_pressure;Samples;Min_cycle;Max_cycle;Signal;HPM_P1;HPM_P2
2021/12/12 00:02:29;;;;;;;16.23;12.58;;;;;;;10.87;70.42;101022.94;1675575;83;21016;-67
2021/12/12 00:04:50;;;;;;;16.62;12.90;;;;;;;10.86;70.24;101022.66;1647668;85;21034;-66
2021/12/12 00:07:22;;;;;;;16.32;13.05;;;;;;;10.86;70.16;101027.17;1675188;85;21177;-68
2021/12/12 00:09:53;;;;;;;15.70;11.73;;;;;;;10.87;70.06;101032.28;1692609;84;21209;-67
2021/12/12 00:12:27;;;;;;;14.73;11.53;;;;;;;10.84;70.05;101023.42;1677907;85;20998;-67
2021/12/12 00:14:55;;;;;;;13.83;10.78;;;;;;;10.79;70.18;101026.02;1692543;84;20992;-67
2021/12/12 00:17:24;;;;;;;14.05;11.05;;;;;;;10.75;70.26;101030.24;1677489;85;21097;-67
2021/12/12 00:19:51;;;;;;;13.55;10.98;;;;;;;10.72;70.37;101029.39;1677492;85;21062;-67
2021/12/12 00:22:23;;;;;;;12.95;9.95;;;;;;;10.75;70.32;101035.05;1692427;84;21120;-68
2021/12/12 00:24:49;;;;;;;13.48;10.35;;;;;;;10.76;70.28;101027.88;1677771;85;21010;-67
2021/12/12 00:27:16;;;;;;;14.10;10.82;;;;;;;10.73;70.18;101031.03;1676994;85;21494;-68
2021/12/12 00:29:43;;;;;;;13.15;10.35;;;;;;;10.70;70.17;101041.68;1692765;84;21545;-67
2021/12/12 00:32:14;;;;;;;13.78;10.82;;;;;;;10.71;70.16;101048.62;1683845;84;21050;-67
2021/12/12 00:34:49;;;;;;;12.05;9.33;;;;;;;10.67;70.18;101040.83;1692688;83;21114;-68
2021/12/12 00:37:17;;;;;;;12.40;8.98;;;;;;;10.65;70.20;101036.25;1677753;85;20976;-67
2021/12/12 00:39:50;;;;;;;10.93;8.90;;;;;;;10.67;70.25;101039.50;1692797;84;21040;-67
2021/12/12 00:42:22;;;;;;;10.78;8.30;;;;;;;10.65;70.12;101038.12;1677499;85;21145;-67
2021/12/12 00:44:53;;;;;;;11.15;8.68;;;;;;;10.59;70.06;101040.42;1695075;83;20999;-67
2021/12/12 00:47:20;;;;;;;11.70;9.10;;;;;;;10.44;70.15;101042.36;1692265;84;21195;-67
2021/12/12 00:49:46;;;;;;;9.58;8.28;;;;;;;10.31;70.30;101042.16;1659294;85;21055;-67
2021/12/12 00:52:16;;;;;;;11.10;8.98;;;;;;;10.23;70.52;101043.84;1727085;83;21010;-67
2021/12/12 00:54:43;;;;;;;10.05;8.38;;;;;;;10.16;70.68;101044.54;1692851;84;21107;-67
2021/12/12 00:57:13;;;;;;;9.50;8.00;;;;;;;10.16;70.85;101048.02;1692887;84;21030;-67
2021/12/12 00:59:40;;;;;;;10.55;8.30;;;;;;;10.16;71.01;101048.55;1663130;86;21112;-67
2021/12/12 01:02:12;;;;;;;9.35;7.60;;;;;;;10.24;71.06;101049.49;1677609;85;21046;-67
2021/12/12 01:04:44;;;;;;;9.60;8.30;;;;;;;10.28;71.11;101044.78;1677263;85;21063;-67
2021/12/12 01:07:16;;;;;;;9.78;8.08;;;;;;;10.29;71.13;101050.39;1677645;85;21577;-67
2021/12/12 01:09:49;;;;;;;;;;;;;;;10.30;71.10;101057.37;1680191;85;21094;-66
2021/12/12 01:12:20;;;;;;;9.30;7.60;;;;;;;10.30;71.13;101061.38;1693109;84;21165;-67
2021/12/12 01:14:52;;;;;;;9.43;8.43;;;;;;;10.24;71.26;101067.66;1693037;84;21144;-66
2021/12/12 01:17:25;;;;;;;9.20;7.45;;;;;;;10.24;71.26;101067.66;1682124;84;21034;-66
2021/12/12 01:19:59;;;;;;;9.83;7.87;;;;;;;10.26;71.41;101070.09;1677432;85;21014;-66
2021/12/12 01:22:33;;;;;;;8.10;6.90;;;;;;;10.29;71.42;101074.42;1678058;85;21141;-67
2021/12/12 01:25:14;;;;;;;9.15;7.65;;;;;;;10.33;71.55;101080.09;1677457;85;21134;-66
2021/12/12 01:27:41;;;;;;;8.95;6.97;;;;;;;10.43;71.49;101079.44;1676377;85;20983;-67
2021/12/12 01:30:10;;;;;;;8.93;7.33;;;;;;;10.44;71.35;101075.74;1692574;84;21182;-67
2021/12/12 01:32:37;;;;;;;9.05;7.80;;;;;;;10.36;71.34;101071.59;1677680;85;21022;-67
2021/12/12 01:35:13;;;;;;;8.88;7.20;;;;;;;10.34;71.32;101075.05;1677769;85;21039;-66
2021/12/12 01:37:39;;;;;;;8.60;7.33;;;;;;;10.32;71.36;101075.28;1692959;84;21149;-67
2021/12/12 01:40:23;;;;;;;8.95;7.60;;;;;;;10.35;71.31;101075.33;1678555;84;21011;-66
2021/12/12 01:42:55;;;;;;;8.88;7.90;;;;;;;10.30;71.38;101080.60;1677831;85;21162;-67
2021/12/12 01:45:33;;;;;;;9.23;7.73;;;;;;;10.31;71.55;101087.55;1677482;85;21145;-67
2021/12/12 01:48:05;;;;;;;8.83;7.40;;;;;;;10.36;71.68;101087.61;1695964;83;20999;-66
2021/12/12 01:50:42;;;;;;;9.25;7.65;;;;;;;10.44;71.66;101083.75;1692264;84;21216;-66
2021/12/12 01:53:12;;;;;;;9.15;7.58;;;;;;;10.48;71.52;101078.20;1677431;84;20963;-66
2021/12/12 01:55:51;;;;;;;11.20;8.08;;;;;;;10.43;71.58;101078.11;1692676;84;20970;-66
2021/12/12 01:58:22;;;;;;;9.68;7.75;;;;;;;10.45;71.58;101086.70;1676775;85;21059;-66
2021/12/12 02:00:57;;;;;;;9.10;7.45;;;;;;;10.43;71.58;101089.62;1692990;84;21013;-67
2021/12/12 02:03:28;;;;;;;8.80;7.22;;;;;;;10.44;71.65;101085.89;1676405;85;21112;-67
2021/12/12 02:05:56;;;;;;;9.28;7.85;;;;;;;10.40;71.70;101088.77;1677373;85;21067;-67
2021/12/12 02:08:23;;;;;;;8.55;7.33;;;;;;;10.33;71.75;101081.42;1677749;85;21083;-67
2021/12/12 02:10:54;;;;;;;9.25;7.78;;;;;;;10.33;71.90;101088.09;1691896;83;20977;-66
2021/12/12 02:13:23;;;;;;;9.08;7.55;;;;;;;10.39;71.93;101094.34;1677977;85;21592;-66
2021/12/12 02:15:54;;;;;;;9.73;7.72;;;;;;;10.42;72.00;101089.85;1692727;84;21141;-66
2021/12/12 02:18:30;;;;;;;8.40;6.80;;;;;;;10.43;72.07;101093.63;1677004;85;20959;-67
2021/12/12 02:21:17;;;;;;;8.83;7.53;;;;;;;10.48;72.02;101095.03;1677196;85;21082;-67
2021/12/12 02:37:17;;;;;;;9.38;7.28;;;;;;;10.69;71.79;101087.33;1677498;85;21074;-67
2021/12/12 02:39:44;;;;;;;9.63;7.40;;;;;;;10.76;71.82;101092.80;1677181;85;21074;-66
2021/12/12 02:42:13;;;;;;;9.40;7.33;;;;;;;10.80;71.68;101094.45;1692883;84;21803;-66
2021/12/12 02:44:41;;;;;;;10.48;7.60;;;;;;;10.80;71.76;101094.45;1677591;85;21031;-66
2021/12/12 02:47:17;;;;;;;9.23;7.20;;;;;;;10.86;71.70;101091.31;1692269;84;21424;-66
2021/12/12 02:52:24;;;;;;;12.55;8.18;;;;;;;10.99;71.63;101101.15;1692309;84;21596;-67
2021/12/12 02:54:50;;;;;;;;;;;;;;;11.06;71.42;101104.18;1679808;85;21145;-67
2021/12/12 02:57:17;;;;;;;12.55;8.28;;;;;;;11.12;71.46;101108.02;1677306;85;20169;-66
2021/12/12 02:59:48;;;;;;;14.00;8.75;;;;;;;11.22;71.20;101101.45;1692705;84;21032;-66
2021/12/12 03:02:23;;;;;;;14.25;8.80;;;;;;;11.21;71.05;101097.67;1693000;84;21008;-67
2021/12/12 03:04:52;;;;;;;13.05;7.65;;;;;;;11.15;70.98;101097.33;1677576;85;21103;-67
2021/12/12 03:07:18;;;;;;;17.17;9.28;;;;;;;11.11;70.99;101097.02;1692870;84;21115;-67
2021/12/12 03:09:51;;;;;;;14.58;7.83;;;;;;;11.06;71.06;101094.83;1677590;85;21047;-67
2021/12/12 03:12:30;;;;;;;18.60;9.75;;;;;;;11.07;71.10;101102.58;1692828;84;21070;-66
2021/12/12 03:14:53;;;;;;;14.98;8.23;;;;;;;11.01;71.23;101104.37;1675271;85;21047;-66
2021/12/12 03:17:22;;;;;;;13.65;8.38;;;;;;;11.17;71.11;101103.25;1721304;83;21103;-67
2021/12/12 03:19:54;;;;;;;21.85;9.45;;;;;;;11.19;71.03;101105.96;1688640;84;21781;-67
2021/12/12 03:22:21;;;;;;;;;;;;;;;11.16;70.86;101106.98;1680205;85;21053;-67
2021/12/12 03:24:50;;;;;;;15.90;8.63;;;;;;;11.03;71.03;101106.81;1677990;85;20468;-68
2021/12/12 03:27:16;;;;;;;21.60;11.15;;;;;;;11.01;71.12;101112.38;1677695;85;21088;-67
2021/12/12 03:29:44;;;;;;;18.82;10.65;;;;;;;11.06;71.08;101106.85;1677750;85;21187;-67
2021/12/12 03:32:14;;;;;;;19.60;11.28;;;;;;;11.23;70.67;101114.30;1677541;85;21127;-68
2021/12/12 03:34:50;;;;;;;22.10;12.15;;;;;;;11.20;70.54;101116.93;1678022;85;20963;-67
2021/12/12 03:37:19;;;;;;;22.15;11.80;;;;;;;11.27;70.25;101116.22;1677335;85;21018;-66
2021/12/12 03:39:48;;;;;;;20.52;11.85;;;;;;;11.34;70.12;101120.58;1677706;85;20990;-66
2021/12/12 03:42:18;;;;;;;19.10;11.68;;;;;;;11.38;69.98;101126.51;1677726;85;21011;-67
2021/12/12 03:44:46;;;;;;;23.92;13.00;;;;;;;11.44;69.86;101130.87;1677756;85;21438;-66
2021/12/12 03:47:21;;;;;;;22.90;13.83;;;;;;;11.42;69.83;101129.52;1677689;85;21022;-67
2021/12/12 03:49:48;;;;;;;21.00;12.50;;;;;;;11.40;69.93;101127.08;1677715;85;21007;-67
2021/12/12 03:52:16;;;;;;;19.25;11.25;;;;;;;11.42;69.86;101125.52;1677714;85;21521;-67
2021/12/12 03:54:45;;;;;;;19.55;11.70;;;;;;;11.41;69.84;101128.69;1677814;85;20979;-67
2021/12/12 03:57:12;;;;;;;18.35;11.05;;;;;;;11.32;70.02;101122.17;1663709;86;21139;-67
2021/12/12 03:59:38;;;;;;;16.93;11.10;;;;;;;11.28;70.12;101127.72;1693210;84;21043;-67
2021/12/12 04:02:05;;;;;;;17.23;11.78;;;;;;;11.24;70.36;101124.73;1693037;84;21047;-67
2021/12/12 04:04:39;;;;;;;17.00;10.32;;;;;;;11.26;70.57;101129.84;1693138;84;21087;-68
2021/12/12 04:07:11;;;;;;;16.15;10.13;;;;;;;11.35;70.62;101136.39;1684987;85;21011;-67
2021/12/12 04:09:37;;;;;;;16.67;10.20;;;;;;;11.45;70.43;101135.19;1693302;84;21125;-68
2021/12/12 04:12:07;;;;;;;15.30;10.20;;;;;;;11.46;70.34;101137.33;1677423;85;21043;-67
2021/12/12 04:14:35;;;;;;;21.37;12.45;;;;;;;11.45;70.24;101136.52;1693413;84;21127;-67
2021/12/12 04:17:07;;;;;;;17.48;11.48;;;;;;;11.44;70.03;101134.08;1677794;85;21031;-67
2021/12/12 04:19:35;;;;;;;16.05;10.63;;;;;;;11.41;69.96;101140.73;1693034;84;21072;-67
2021/12/12 04:22:03;;;;;;;16.12;10.65;;;;;;;11.39;69.78;101136.17;1677708;85;21550;-67
2021/12/12 04:24:33;;;;;;;16.45;11.28;;;;;;;11.34;69.67;101136.09;1692908;84;20979;-67
2021/12/12 04:27:00;;;;;;;17.52;11.25;;;;;;;11.24;69.79;101137.30;1677688;85;21063;-67
2021/12/12 04:29:32;;;;;;;16.50;10.88;;;;;;;11.27;69.77;101140.81;1692975;84;21035;-67
2021/12/12 04:32:13;;;;;;;16.48;12.50;;;;;;;11.26;69.78;101136.00;1677719;85;21542;-67
2021/12/12 04:34:46;;;;;;;18.42;12.20;;;;;;;11.22;69.81;101133.55;1685657;84;21037;-66
2021/12/12 04:37:12;;;;;;;;;;;;;;;11.18;69.88;101130.26;1695557;84;21201;-67
2021/12/12 04:39:42;;;;;;;16.02;11.65;;;;;;;11.13;70.04;101132.88;1692998;84;20167;-68
2021/12/12 04:42:19;;;;;;;18.98;11.90;;;;;;;11.07;70.21;101129.84;1693223;84;21043;-67
2021/12/12 04:44:49;;;;;;;17.87;12.88;;;;;;;11.09;70.28;101140.58;1690387;84;21011;-67
2021/12/12 04:50:34;;;;;;;19.15;12.58;;;;;;;11.12;70.26;101136.08;1689633;84;21103;-67
2021/12/12 04:53:14;;;;;;;21.23;13.45;;;;;;;11.10;70.31;101139.52;1693069;84;21027;-66
2021/12/12 04:56:18;;;;;;;19.25;13.03;;;;;;;11.06;70.41;101141.08;1677761;85;21454;-66
2021/12/12 04:58:58;;;;;;;19.98;13.20;;;;;;;11.08;70.47;101139.48;1693176;84;21542;-67
2021/12/12 05:01:32;;;;;;;22.15;14.45;;;;;;;11.06;70.47;101141.61;1693039;84;21173;-67
2021/12/12 05:04:10;;;;;;;24.25;15.90;;;;;;;11.09;70.21;101145.93;1692888;84;21063;-67
2021/12/12 05:06:51;;;;;;;25.97;16.95;;;;;;;11.06;70.15;101139.73;1693190;84;21737;-66
2021/12/12 05:09:34;;;;;;;28.73;19.45;;;;;;;11.01;69.88;101145.80;1667862;84;20991;-66
2021/12/12 05:12:34;;;;;;;29.18;18.12;;;;;;;10.91;69.83;101140.84;1692898;84;21042;-66
2021/12/12 05:15:09;;;;;;;28.23;18.02;;;;;;;10.81;69.85;101141.49;1693020;84;21256;-66
2021/12/12 05:17:43;;;;;;;25.90;17.62;;;;;;;10.63;69.97;101140.39;1692050;84;20972;-66
2021/12/12 05:20:22;;;;;;;28.42;17.20;;;;;;;10.59;69.85;101152.62;1693115;84;21075;-66
2021/12/12 05:22:51;;;;;;;26.35;17.30;;;;;;;10.48;69.86;101151.65;1692990;84;21011;-67
2021/12/12 05:25:41;;;;;;;25.97;17.50;;;;;;;10.39;69.91;101150.42;1692947;84;20976;-67
2021/12/12 05:28:10;;;;;;;24.43;16.82;;;;;;;10.33;69.89;101152.18;1686502;84;21590;-67
2021/12/12 05:30:37;;;;;;;25.12;17.25;;;;;;;10.25;69.97;101156.03;1668810;86;21107;-67
2021/12/12 05:33:04;;;;;;;24.43;16.27;;;;;;;10.18;70.11;101161.24;1668840;86;21023;-67
2021/12/12 05:35:35;;;;;;;23.47;14.83;;;;;;;10.12;70.17;101168.87;1723392;83;20975;-67
2021/12/12 05:38:02;;;;;;;22.25;14.95;;;;;;;10.03;70.34;101179.10;1723477;83;21581;-67
2021/12/12 05:40:33;;;;;;;23.32;14.93;;;;;;;9.97;70.52;101178.71;1723509;83;21605;-67
2021/12/12 05:43:01;;;;;;;21.95;14.87;;;;;;;10.02;70.31;101174.30;1723310;83;21023;-67
2021/12/12 05:45:30;;;;;;;23.47;14.83;;;;;;;10.04;70.19;101179.41;1723699;83;21019;-68
2021/12/12 05:47:57;;;;;;;22.22;14.65;;;;;;;10.00;70.27;101180.41;1723530;83;21414;-68
2021/12/12 05:50:24;;;;;;;19.48;13.53;;;;;;;10.04;70.24;101185.55;1723648;83;21578;-69
2021/12/12 05:52:54;;;;;;;21.15;14.18;;;;;;;10.05;70.27;101189.03;1723720;83;21458;-68
2021/12/12 05:55:21;;;;;;;21.62;14.15;;;;;;;10.04;70.24;101194.89;1723335;83;21121;-67
2021/12/12 05:57:53;;;;;;;19.87;13.35;;;;;;;9.99;70.24;101204.65;1723326;83;20963;-68
2021/12/12 06:00:17;;;;;;;20.05;13.90;;;;;;;9.96;70.34;101207.79;1685755;85;20984;-68
2021/12/12 06:02:44;;;;;;;21.62;13.58;;;;;;;9.95;70.36;101208.31;1668951;86;20979;-68
2021/12/12 06:05:11;;;;;;;20.43;14.38;;;;;;;9.93;70.42;101210.92;1668807;86;21506;-67
2021/12/12 06:07:38;;;;;;;20.15;14.07;;;;;;;9.92;70.47;101214.13;1723396;83;20919;-67
2021/12/12 06:10:08;;;;;;;19.50;13.40;;;;;;;9.91;70.49;101223.19;1723407;83;21471;-68
2021/12/12 06:12:36;;;;;;;18.27;12.43;;;;;;;9.95;70.40;101222.99;1723328;83;21651;-68
2021/12/12 06:15:08;;;;;;;20.15;14.05;;;;;;;9.94;70.29;101222.72;1723526;82;20979;-68
2021/12/12 06:17:36;;;;;;;17.85;12.88;;;;;;;9.93;70.30;101229.08;1723692;83;21443;-68
2021/12/12 06:20:06;;;;;;;19.82;13.18;;;;;;;9.98;70.10;101232.39;1723278;83;21023;-68
2021/12/12 06:22:34;;;;;;;;;;;;;;;10.14;69.68;101238.85;1725997;83;20947;-68
2021/12/12 06:25:01;;;;;;;17.80;12.43;;;;;;;10.13;69.69;101247.36;1723467;83;20256;-67
2021/12/12 06:27:29;;;;;;;18.30;12.25;;;;;;;10.16;69.46;101247.41;1723396;83;21180;-67
2021/12/12 06:29:57;;;;;;;20.90;14.10;;;;;;;10.19;69.30;101254.95;1723331;83;21122;-70
2021/12/12 06:32:25;;;;;;;19.42;13.05;;;;;;;10.20;69.17;101256.56;1723336;82;20964;-68
2021/12/12 06:34:52;;;;;;;17.52;12.15;;;;;;;10.20;68.96;101256.56;1723536;83;20979;-68
2021/12/12 06:37:18;;;;;;;17.70;12.25;;;;;;;10.25;68.83;101256.67;1673698;83;21525;-68
2021/12/12 06:39:45;;;;;;;17.50;12.20;;;;;;;10.28;68.60;101256.23;1723768;83;21569;-68
2021/12/12 06:42:13;;;;;;;19.00;12.95;;;;;;;10.37;68.29;101256.68;1723511;83;21130;-68
2021/12/12 06:44:41;;;;;;;18.42;11.80;;;;;;;10.31;68.30;101262.44;1723551;83;21129;-67
2021/12/12 06:47:12;;;;;;;16.17;10.80;;;;;;;10.28;68.24;101271.73;1723618;83;21502;-68
2021/12/12 06:49:39;;;;;;;17.57;12.25;;;;;;;10.32;68.15;101277.41;1724003;82;21142;-67
2021/12/12 06:52:08;;;;;;;17.60;11.70;;;;;;;8.13;72.79;101285.70;1723515;83;21422;-67
2021/12/12 06:54:35;;;;;;;17.92;12.05;;;;;;;6.93;77.89;101295.78;1723665;83;21508;-68
2021/12/12 06:57:06;;;;;;;18.62;12.00;;;;;;;6.66;79.91;101293.81;1697014;83;21035;-68
2021/12/12 06:59:35;;;;;;;;;;;;;;;6.56;81.32;101300.91;1726394;83;21058;-68
2021/12/12 07:02:04;;;;;;;18.07;11.95;;;;;;;6.49;82.23;101300.94;1723524;83;20134;-69
2021/12/12 07:04:31;;;;;;;20.25;12.68;;;;;;;6.45;82.92;101301.55;1723718;82;21596;-67
2021/12/12 07:07:00;;;;;;;18.37;11.73;;;;;;;6.41;83.69;101291.06;1723687;83;21931;-67
2021/12/12 07:09:32;;;;;;;17.00;11.33;;;;;;;6.36;84.25;101280.29;1708053;81;21066;-68
2021/12/12 07:12:03;;;;;;;17.87;10.80;;;;;;;6.30;84.64;101278.77;1723015;83;21040;-67
2021/12/12 07:14:30;;;;;;;17.57;11.97;;;;;;;6.27;85.05;101281.03;1723574;83;21036;-68
2021/12/12 07:16:57;;;;;;;18.60;11.35;;;;;;;6.22;85.35;101281.67;1723588;82;20988;-68
2021/12/12 07:19:23;;;;;;;16.95;10.95;;;;;;;6.21;85.72;101291.15;1723569;83;21037;-68
2021/12/12 07:21:51;;;;;;;18.35;11.50;;;;;;;6.14;85.95;101295.15;1723558;83;21123;-68
2021/12/12 07:24:18;;;;;;;19.48;12.00;;;;;;;6.10;86.19;101297.92;1723501;83;21444;-68
2021/12/12 07:26:45;;;;;;;20.20;12.53;;;;;;;6.10;86.34;101301.91;1723581;83;20988;-68
2021/12/12 07:29:12;;;;;;;20.08;12.90;;;;;;;6.09;86.56;101302.42;1723335;83;20954;-68
2021/12/12 07:31:41;;;;;;;19.98;12.60;;;;;;;6.09;86.67;101309.56;1723440;83;21563;-68
2021/12/12 07:34:11;;;;;;;20.97;12.47;;;;;;;6.08;86.79;101314.55;1723451;83;21504;-68
2021/12/12 07:36:48;;;;;;;20.97;12.55;;;;;;;6.01;86.95;101311.10;1719533;81;21439;-69
2021/12/12 07:39:18;;;;;;;19.90;12.25;;;;;;;5.99;87.06;101303.86;1723602;83;21015;-67
2021/12/12 07:41:46;;;;;;;19.67;12.35;;;;;;;5.98;87.14;101316.30;1723781;83;20964;-67
2021/12/12 07:44:16;;;;;;;21.30;12.68;;;;;;;5.97;87.26;101316.53;1723702;83;21093;-68
2021/12/12 07:46:45;;;;;;;21.95;13.38;;;;;;;5.96;87.26;101317.56;1723685;83;21739;-68
2021/12/12 07:49:12;;;;;;;20.82;12.43;;;;;;;5.89;87.36;101306.94;1723716;83;21562;-68
2021/12/12 07:51:40;;;;;;;20.17;12.20;;;;;;;5.86;87.39;101306.02;1723544;83;20960;-68
2021/12/12 07:54:07;;;;;;;22.00;13.65;;;;;;;5.84;87.46;101314.69;1723665;83;21014;-68
2021/12/12 07:56:35;;;;;;;21.55;12.73;;;;;;;5.84;87.54;101323.96;1723392;83;21144;-67
2021/12/12 07:59:07;;;;;;;19.82;12.50;;;;;;;5.86;87.60;101333.86;1724074;83;21082;-69
2021/12/12 08:01:41;;;;;;;20.65;11.80;;;;;;;5.86;87.64;101339.97;1725172;82;21031;-68
2021/12/12 08:04:08;;;;;;;21.75;12.55;;;;;;;5.88;87.65;101332.61;1697702;83;21024;-70
2021/12/12 08:06:36;;;;;;;20.85;12.20;;;;;;;5.91;87.61;101330.06;1723463;82;20968;-68
2021/12/12 08:09:04;;;;;;;20.90;12.73;;;;;;;5.93;87.65;101329.39;1723441;83;21147;-68
2021/12/12 08:11:33;;;;;;;20.95;12.03;;;;;;;5.93;87.58;101330.71;1696493;83;21165;-69
2021/12/12 08:14:06;;;;;;;20.60;11.45;;;;;;;5.92;87.55;101329.55;1723552;83;21075;-68
2021/12/12 08:16:32;;;;;;;19.92;11.90;;;;;;;5.93;87.57;101324.59;1723466;83;21091;-68
2021/12/12 08:18:59;;;;;;;21.20;12.75;;;;;;;5.95;87.58;101339.77;1723592;83;21043;-68
2021/12/12 08:21:26;;;;;;;23.20;13.18;;;;;;;5.96;87.55;101349.38;1723759;82;21140;-68
2021/12/12 08:23:55;;;;;;;21.48;12.85;;;;;;;6.00;87.52;101342.63;1723480;83;21086;-67
2021/12/12 08:26:22;;;;;;;21.30;12.73;;;;;;;6.00;87.42;101339.47;1723474;83;21051;-67
2021/12/12 08:28:50;;;;;;;20.12;11.20;;;;;;;5.99;87.24;101340.98;1723464;83;21042;-68
2021/12/12 08:31:17;;;;;;;22.40;14.50;;;;;;;5.96;87.21;101345.41;1723509;83;21007;-67
2021/12/12 08:33:44;;;;;;;21.55;13.25;;;;;;;5.91;87.11;101349.95;1723513;83;21151;-68
2021/12/12 08:36:11;;;;;;;20.00;12.18;;;;;;;5.88;87.11;101343.21;1697055;83;21223;-68
2021/12/12 08:38:37;;;;;;;22.07;13.60;;;;;;;5.84;87.07;101328.75;1723313;83;20963;-69
2021/12/12 08:41:05;;;;;;;19.65;11.90;;;;;;;5.79;87.06;101338.33;1696921;83;21510;-68
2021/12/12 08:43:32;;;;;;;20.30;12.45;;;;;;;5.76;87.09;101340.06;1723441;83;20967;-69
2021/12/12 08:46:03;;;;;;;21.20;13.32;;;;;;;5.72;87.10;101337.02;1723516;83;21132;-68
2021/12/12 08:48:33;;;;;;;21.17;12.80;;;;;;;5.71;87.15;101330.09;1723512;83;20995;-67
2021/12/12 08:51:05;;;;;;;19.98;12.10;;;;;;;5.69;87.15;101329.47;1723544;83;21094;-68
2021/12/12 08:53:32;;;;;;;19.00;12.18;;;;;;;5.69;87.24;101332.13;1723311;83;20999;-67
2021/12/12 08:55:59;;;;;;;19.25;12.25;;;;;;;5.68;87.25;101332.34;1723461;83;21070;-67
2021/12/12 09:01:24;;;;;;;16.93;10.18;;;;;;;5.63;87.19;101328.99;1723431;83;21462;-68
2021/12/12 09:03:57;;;;;;;18.73;11.60;;;;;;;5.56;87.14;101334.30;1723735;82;20947;-69
2021/12/12 09:06:28;;;;;;;16.65;11.18;;;;;;;5.52;87.23;101329.59;1723532;83;21546;-69
2021/12/12 09:09:05;;;;;;;17.17;9.90;;;;;;;5.51;87.28;101327.45;1723276;83;21490;-68
2021/12/12 09:11:40;;;;;;;15.23;9.35;;;;;;;5.49;87.21;101328.16;1723511;83;21854;-68
2021/12/12 09:14:15;;;;;;;16.30;10.32;;;;;;;5.47;87.25;101332.86;1708670;83;20995;-67
2021/12/12 09:16:49;;;;;;;17.45;11.08;;;;;;;5.46;87.23;101333.05;1723606;83;21011;-67
2021/12/12 09:19:25;;;;;;;16.65;9.98;;;;;;;5.47;87.26;101328.89;1724154;83;20980;-67
2021/12/12 09:22:03;;;;;;;16.67;10.05;;;;;;;5.46;87.23;101334.38;1723509;83;21114;-69
2021/12/12 09:24:45;;;;;;;15.90;9.98;;;;;;;5.44;87.19;101335.11;1722447;83;21918;-68
2021/12/12 09:27:26;;;;;;;14.07;9.28;;;;;;;5.43;87.23;101329.48;1723677;83;21039;-68
2021/12/12 09:30:05;;;;;;;14.00;9.43;;;;;;;5.44;87.23;101339.08;1723943;83;21079;-69
2021/12/12 09:32:58;;;;;;;13.95;9.15;;;;;;;5.42;87.14;101333.97;1723455;83;21498;-67
2021/12/12 09:35:34;;;;;;;15.40;9.40;;;;;;;5.37;87.12;101335.92;1722838;83;21506;-68
2021/12/12 09:38:14;;;;;;;12.85;8.55;;;;;;;5.34;87.05;101328.37;1723385;83;21154;-68
2021/12/12 09:41:25;;;;;;;14.50;9.95;;;;;;;5.32;87.04;101321.13;1716856;83;21055;-68
2021/12/12 09:44:09;;;;;;;13.03;9.10;;;;;;;5.28;87.06;101326.53;1695860;83;21067;-69
2021/12/12 09:47:28;;;;;;;13.62;9.48;;;;;;;5.26;87.12;101320.61;1723164;83;21015;-68
2021/12/12 09:53:23;;;;;;;18.02;10.93;;;;;;;5.24;87.26;101312.08;1723381;83;21160;-70
2021/12/12 09:56:04;;;;;;;16.12;10.72;;;;;;;5.24;87.26;101320.02;1723793;83;21122;-70
2021/12/12 09:58:57;;;;;;;12.63;8.75;;;;;;;5.26;87.30;101322.45;1723642;83;21593;-69
2021/12/12 10:01:38;;;;;;;18.42;11.63;;;;;;;5.25;87.33;101324.80;1719806;83;21506;-68
2021/12/12 10:04:34;;;;;;;16.10;11.05;;;;;;;5.28;87.33;101320.42;1723345;81;21013;-69
2021/12/12 10:07:13;;;;;;;19.67;12.23;;;;;;;5.30;87.34;101327.16;1721150;83;21226;-69
2021/12/12 10:10:01;;;;;;;17.27;11.08;;;;;;;5.31;87.37;101331.94;1723367;83;20973;-67
2021/12/12 10:12:34;;;;;;;18.82;12.70;;;;;;;5.35;87.39;101331.83;1723150;83;20977;-70
2021/12/12 10:15:11;;;;;;;19.57;12.00;;;;;;;5.36;87.37;101326.34;1724019;82;21052;-67
2021/12/12 10:18:07;;;;;;;19.82;12.78;;;;;;;5.37;87.34;101322.67;1723544;83;21032;-68
2021/12/12 10:20:41;;;;;;;21.55;14.15;;;;;;;5.34;87.27;101321.75;1723252;83;21173;-68
2021/12/12 10:23:22;;;;;;;25.37;15.90;;;;;;;5.34;87.29;101311.16;1723201;83;20981;-69
2021/12/12 10:26:07;;;;;;;28.90;18.50;;;;;;;5.33;87.23;101312.19;1723154;83;21001;-68
2021/12/12 10:29:06;;;;;;;24.15;16.02;;;;;;;5.28;87.08;101311.97;1723262;83;20985;-67
2021/12/12 10:31:48;;;;;;;26.40;16.67;;;;;;;5.24;87.06;101310.75;1723437;83;21151;-67
2021/12/12 10:34:24;;;;;;;27.50;16.90;;;;;;;5.20;87.04;101316.15;1723004;83;21985;-66
2021/12/12 10:37:17;;;;;;;27.37;17.00;;;;;;;5.15;86.90;101307.47;1723509;83;21080;-68
2021/12/12 10:39:49;;;;;;;25.68;16.70;;;;;;;5.08;86.85;101317.76;1723364;83;21057;-66
2021/12/12 10:42:26;;;;;;;24.32;16.42;;;;;;;5.07;87.00;101318.78;1723695;83;21205;-68
2021/12/12 10:45:07;;;;;;;26.68;17.07;;;;;;;5.02;86.94;101319.88;1723028;83;20974;-67
2021/12/12 10:47:50;;;;;;;26.62;16.80;;;;;;;4.94;86.98;101324.87;1723398;82;21473;-69
2021/12/12 10:50:57;;;;;;;23.45;14.80;;;;;;;4.89;86.99;101329.94;1722895;83;21520;-67
2021/12/12 10:53:44;;;;;;;25.57;16.30;;;;;;;4.89;87.11;101320.16;1723342;82;20989;-68
2021/12/12 10:56:36;;;;;;;24.10;15.63;;;;;;;4.89;87.20;101322.80;1693546;84;20961;-67
2021/12/12 10:59:27;;;;;;;23.20;14.65;;;;;;;4.87;87.24;101319.56;1694442;84;21082;-68
2021/12/12 11:01:59;;;;;;;25.90;16.65;;;;;;;4.84;87.16;101314.66;1694379;84;21181;-68
2021/12/12 11:04:44;;;;;;;;;;;;;;;4.80;87.20;101316.57;1697086;84;21070;-68
2021/12/12 11:07:16;;;;;;;23.38;15.30;;;;;;;4.77;87.24;101313.84;1694333;84;20162;-68
2021/12/12 11:09:53;;;;;;;26.15;15.83;;;;;;;4.72;87.28;101316.25;1694078;84;21069;-68
2021/12/12 11:12:26;;;;;;;25.70;15.98;;;;;;;4.66;87.30;101310.44;1694396;84;21585;-68
2021/12/12 11:15:15;;;;;;;25.20;16.95;;;;;;;4.62;87.45;101300.75;1694382;84;21840;-69
2021/12/12 11:17:47;;;;;;;24.32;16.00;;;;;;;4.62;87.64;101295.98;1685860;84;21035;-68
2021/12/12 11:20:35;;;;;;;22.67;14.67;;;;;;;4.58;87.77;101292.11;1694354;84;21023;-67
2021/12/12 11:23:08;;;;;;;22.02;14.43;;;;;;;4.55;87.80;101281.92;1694493;84;21015;-67
2021/12/12 11:25:57;;;;;;;21.10;13.55;;;;;;;4.55;87.95;101285.88;1693658;84;21454;-69
2021/12/12 11:28:32;;;;;;;23.52;14.70;;;;;;;4.58;88.02;101281.52;1694501;84;21187;-69
2021/12/12 11:31:17;;;;;;;21.42;13.85;;;;;;;4.61;88.07;101284.58;1694890;84;21114;-68
2021/12/12 11:33:48;;;;;;;21.37;12.93;;;;;;;4.63;88.07;101287.02;1694532;84;20987;-68
2021/12/12 11:36:18;;;;;;;19.20;13.55;;;;;;;4.65;88.00;101290.28;1695139;84;21007;-68
2021/12/12 11:39:05;;;;;;;20.43;13.95;;;;;;;4.64;87.91;101287.31;1694618;84;20980;-67
2021/12/12 11:41:49;;;;;;;18.35;12.78;;;;;;;4.63;87.82;101281.72;1694448;84;21811;-68
2021/12/12 11:44:31;;;;;;;19.62;12.65;;;;;;;4.64;87.84;101286.83;1693863;84;21015;-68
2021/12/12 11:47:22;;;;;;;16.95;11.97;;;;;;;4.61;87.80;101273.19;1694876;84;20971;-69
2021/12/12 11:49:57;;;;;;;18.05;12.55;;;;;;;4.63;87.73;101268.49;1695038;84;21117;-68
2021/12/12 11:52:58;;;;;;;17.20;11.50;;;;;;;4.59;87.54;101273.88;1694407;84;21369;-68
2021/12/12 11:55:36;;;;;;;17.42;11.95;;;;;;;4.54;87.49;101269.20;1718571;83;21182;-68
2021/12/12 11:58:23;;;;;;;16.15;11.20;;;;;;;4.53;87.43;101264.91;1723492;83;21624;-68
2021/12/12 12:01:29;;;;;;;17.65;12.00;;;;;;;4.46;87.34;101264.08;1723648;83;21062;-68
2021/12/12 12:04:22;;;;;;;16.07;11.35;;;;;;;4.44;87.38;101269.58;1723465;83;21134;-67
2021/12/12 12:07:12;;;;;;;15.63;10.68;;;;;;;4.48;87.47;101272.64;1723536;83;20963;-68
2021/12/12 12:09:51;;;;;;;14.58;10.55;;;;;;;4.50;87.51;101279.04;1723617;83;21185;-68
2021/12/12 12:12:35;;;;;;;14.15;10.15;;;;;;;4.49;87.33;101274.77;1723211;83;21483;-68
2021/12/12 12:15:30;;;;;;;14.60;9.95;;;;;;;4.45;87.28;101269.88;1723838;82;21513;-68